Time;durP1;ratioP1;P1;durP2;ratioP2;P2;SDS_P1;SDS_P2;PMS_P1;PMS_P2;Temp;Humidity;BMP_temperature;BMP_pressure;BME280_temperature;BME280_humidity;BME280_pressure;Samples;Min_cycle;Max_cycle;Signal;HPM_P1;HPM_P2
2022/09/24 00:01:27;;;;;;;11.95;5.03;;;;;;;10.55;61.87;99758.84;1756689;81;21192;-79
2022/09/24 00:04:33;;;;;;;10.30;6.03;;;;;;;10.49;61.81;99752.25;1758407;81;21722;-79
2022/09/24 00:07:39;;;;;;;15.43;6.22;;;;;;;10.41;61.88;99752.34;1756456;81;21739;-78
2022/09/24 00:10:47;;;;;;;12.03;4.90;;;;;;;10.24;62.50;99748.08;1756969;81;21815;-78
2022/09/24 00:13:56;;;;;;;10.72;4.85;;;;;;;10.31;62.28;99750.93;1767749;81;21228;-78
2022/09/24 00:17:03;;;;;;;8.63;3.37;;;;;;;10.31;62.13;99751.78;1731153;82;21177;-78
2022/09/24 00:20:09;;;;;;;6.70;5.03;;;;;;;10.35;62.02;99757.20;1767888;81;21193;-79
2022/09/24 00:23:14;;;;;;;10.65;4.90;;;;;;;10.35;62.11;99755.84;1732149;82;21157;-78
2022/09/24 00:26:55;;;;;;;9.38;5.00;;;;;;;10.24;62.70;99754.92;1767695;81;21212;-79
2022/09/24 00:29:34;;;;;;;14.18;5.55;;;;;;;10.23;62.59;99749.94;1766735;80;21807;-79
2022/09/24 00:32:40;;;;;;;10.25;4.83;;;;;;;10.21;62.69;99753.39;1769099;81;21213;-79
2022/09/24 00:35:45;;;;;;;16.30;6.17;;;;;;;10.15;62.83;99756.00;1769079;81;21173;-79
2022/09/24 00:38:54;;;;;;;10.48;5.72;;;;;;;10.17;62.65;99756.69;1769271;81;21186;-79
2022/09/24 00:41:59;;;;;;;12.45;5.47;;;;;;;10.10;62.85;99754.35;1766606;81;21229;-79
2022/09/24 00:45:05;;;;;;;13.30;5.37;;;;;;;10.05;63.09;99752.70;1758073;81;21494;-79
2022/09/24 00:48:10;;;;;;;9.53;5.20;;;;;;;9.98;63.38;99751.24;1757903;81;21185;-79
2022/09/24 00:51:15;;;;;;;10.45;5.47;;;;;;;9.97;63.48;99750.89;1757071;81;21573;-79
2022/09/24 00:54:27;;;;;;;7.65;5.03;;;;;;;9.95;63.65;99742.89;1758078;81;21232;-79
2022/09/24 00:57:27;;;;;;;13.50;6.40;;;;;;;9.96;63.60;99743.73;1770996;79;21193;-79
2022/09/24 01:00:32;;;;;;;9.93;6.45;;;;;;;9.98;63.50;99738.95;1799686;79;21178;-79
2022/09/24 01:03:39;;;;;;;10.40;6.53;;;;;;;9.96;63.39;99741.84;1800857;79;21497;-79
2022/09/24 01:06:45;;;;;;;8.38;5.08;;;;;;;9.80;63.91;99738.45;1800508;79;21150;-79
2022/09/24 01:09:45;;;;;;;13.08;6.00;;;;;;;9.76;64.04;99729.77;1800311;79;21189;-79
2022/09/24 01:13:00;;;;;;;16.95;5.65;;;;;;;9.72;64.27;99725.18;1786303;79;21726;-79
2022/09/24 01:16:12;;;;;;;13.32;5.10;;;;;;;9.76;64.25;99719.36;1767566;81;21191;-78
2022/09/24 01:19:51;;;;;;;15.43;5.45;;;;;;;9.83;63.77;99723.88;1761463;80;21215;-78
2022/09/24 01:23:36;;;;;;;8.43;5.30;;;;;;;9.80;63.73;99714.70;1769228;80;21234;-80
2022/09/24 01:27:00;;;;;;;11.48;6.28;;;;;;;9.66;64.07;99710.06;1767720;81;21231;-78
2022/09/24 01:30:14;;;;;;;12.40;5.47;;;;;;;9.82;63.41;99700.33;1768549;81;21225;-78
2022/09/24 01:33:24;;;;;;;10.65;5.75;;;;;;;9.87;63.04;99703.34;1768711;81;21543;-78
2022/09/24 01:36:30;;;;;;;7.75;5.40;;;;;;;9.79;63.09;99703.45;1769004;81;21206;-78
2022/09/24 01:39:35;;;;;;;12.60;6.53;;;;;;;9.75;63.05;99702.13;1769122;81;21193;-79
2022/09/24 01:42:41;;;;;;;7.97;5.30;;;;;;;9.72;62.97;99703.33;1780038;79;21213;-78
2022/09/24 01:45:47;;;;;;;9.65;5.47;;;;;;;9.71;62.88;99708.47;1800989;79;21166;-78
2022/09/24 01:48:53;;;;;;;9.45;5.03;;;;;;;9.72;62.72;99698.39;1800705;79;21226;-78
2022/09/24 01:52:01;;;;;;;11.73;5.67;;;;;;;9.65;62.97;99696.09;1798883;79;21209;-78
2022/09/24 01:55:07;;;;;;;7.62;5.58;;;;;;;9.59;63.29;99696.80;1800516;79;21186;-78
2022/09/24 01:58:18;;;;;;;7.95;4.72;;;;;;;9.59;63.33;99700.38;1800458;79;21787;-78
2022/09/24 02:01:25;;;;;;;;;;;;;;;9.64;63.16;99701.19;1803363;79;21245;-78
2022/09/24 02:04:29;;;;;;;5.55;3.87;;;;;;;9.41;63.66;99694.40;1800609;79;20215;-78
2022/09/24 02:07:43;;;;;;;11.38;5.15;;;;;;;9.24;64.40;99701.89;1800697;79;21178;-78
2022/09/24 02:10:59;;;;;;;9.05;5.70;;;;;;;9.41;64.00;99702.09;1800044;79;21221;-78
2022/09/24 02:14:19;;;;;;;9.90;6.15;;;;;;;9.38;64.46;99698.88;1768296;79;21239;-78
2022/09/24 02:17:24;;;;;;;17.00;6.20;;;;;;;9.62;63.85;99701.91;1768968;81;21165;-78
2022/09/24 02:20:32;;;;;;;9.88;4.97;;;;;;;9.31;64.55;99706.94;1768862;81;21734;-78
2022/09/24 02:23:38;;;;;;;8.38;5.53;;;;;;;9.21;64.85;99712.64;1771594;80;21212;-78
2022/09/24 02:26:45;;;;;;;8.78;5.53;;;;;;;9.16;65.08;99704.67;1777191;79;21779;-78
2022/09/24 02:29:52;;;;;;;8.25;5.45;;;;;;;9.18;65.26;99705.36;1777167;80;21822;-78
2022/09/24 02:32:58;;;;;;;10.03;5.20;;;;;;;9.24;65.28;99710.59;1777198;80;21179;-78
2022/09/24 02:36:04;;;;;;;9.55;6.03;;;;;;;9.29;65.19;99713.10;1777296;80;21192;-78
2022/09/24 02:39:10;;;;;;;7.35;5.78;;;;;;;9.32;65.07;99711.38;1777195;80;21180;-78
2022/09/24 02:42:16;;;;;;;11.33;6.05;;;;;;;9.30;65.18;99711.22;1776165;80;22215;-79
2022/09/24 02:45:23;;;;;;;7.65;5.45;;;;;;;9.33;65.17;99705.41;1740198;82;21542;-79
2022/09/24 02:48:28;;;;;;;11.35;5.95;;;;;;;9.36;64.92;99705.90;1740049;82;21770;-79
2022/09/24 02:51:34;;;;;;;9.95;5.45;;;;;;;9.44;64.48;99712.63;1738883;82;21219;-79
2022/09/24 02:54:40;;;;;;;10.53;5.95;;;;;;;9.38;64.52;99713.89;1738545;82;21168;-78
2022/09/24 02:57:46;;;;;;;10.90;6.58;;;;;;;9.32;64.46;99712.75;1739407;82;22498;-79
2022/09/24 03:00:53;;;;;;;10.80;6.90;;;;;;;9.42;64.28;99716.08;1738712;82;21169;-78
2022/09/24 03:04:01;;;;;;;13.68;6.58;;;;;;;9.52;63.88;99723.16;1739855;82;21184;-78
2022/09/24 03:06:59;;;;;;;14.60;6.67;;;;;;;9.39;64.12;99719.16;1740333;82;21168;-78
2022/09/24 03:09:53;;;;;;;11.28;6.33;;;;;;;9.40;64.00;99724.09;1740010;82;21487;-78
2022/09/24 03:12:59;;;;;;;12.95;6.53;;;;;;;9.39;64.13;99724.62;1738420;82;21220;-79
2022/09/24 03:16:05;;;;;;;9.73;5.28;;;;;;;9.37;64.32;99729.94;1739973;82;21177;-78
2022/09/24 03:19:11;;;;;;;8.70;5.45;;;;;;;9.42;64.20;99730.23;1739512;82;21274;-78
2022/09/24 03:22:10;;;;;;;10.85;6.28;;;;;;;9.51;63.92;99732.39;1714831;82;21814;-78
2022/09/24 03:25:16;;;;;;;10.45;6.28;;;;;;;9.38;64.11;99733.00;1738626;81;21859;-78
2022/09/24 03:28:21;;;;;;;7.92;5.53;;;;;;;9.52;63.79;99739.55;1739053;82;21219;-78
2022/09/24 03:31:27;;;;;;;15.53;6.17;;;;;;;9.32;64.24;99735.95;1739524;82;21224;-78
2022/09/24 03:34:34;;;;;;;13.22;6.72;;;;;;;9.31;64.47;99738.84;1740170;82;21188;-81
2022/09/24 03:37:42;;;;;;;12.43;5.90;;;;;;;9.16;65.14;99735.53;1739993;82;21255;-78
2022/09/24 03:40:46;;;;;;;13.70;7.15;;;;;;;9.30;64.86;99733.05;1739951;82;21224;-78
2022/09/24 03:43:53;;;;;;;13.83;7.50;;;;;;;9.30;64.98;99740.72;1738907;82;21830;-78
2022/09/24 03:47:00;;;;;;;14.65;7.25;;;;;;;9.18;65.33;99736.73;1739655;82;21239;-78
2022/09/24 03:50:08;;;;;;;9.05;5.80;;;;;;;9.27;65.01;99734.28;1738396;82;21271;-79
2022/09/24 03:53:14;;;;;;;12.35;6.42;;;;;;;9.41;64.41;99732.61;1738158;82;21220;-78
2022/09/24 03:56:19;;;;;;;11.53;6.80;;;;;;;9.38;64.49;99728.39;1739490;82;21184;-78
2022/09/24 03:59:25;;;;;;;15.83;7.55;;;;;;;9.51;64.20;99735.13;1738912;82;21208;-78
2022/09/24 04:02:31;;;;;;;11.33;6.58;;;;;;;9.58;64.16;99738.80;1739152;82;21160;-78
2022/09/24 04:05:37;;;;;;;15.13;6.35;;;;;;;9.76;64.04;99744.78;1740150;82;21797;-80
2022/09/24 04:08:43;;;;;;;10.30;6.05;;;;;;;9.89;64.03;99738.17;1739956;82;21467;-78
2022/09/24 04:11:51;;;;;;;11.48;6.37;;;;;;;9.85;64.68;99740.10;1739514;82;21219;-78
2022/09/24 04:14:56;;;;;;;15.65;7.15;;;;;;;9.91;64.87;99741.55;1738539;82;21834;-78
2022/09/24 04:18:04;;;;;;;11.95;7.10;;;;;;;10.02;65.02;99742.13;1739517;82;21188;-79
2022/09/24 04:21:09;;;;;;;12.50;6.87;;;;;;;10.12;65.28;99746.84;1738113;82;21184;-78
2022/09/24 04:24:16;;;;;;;7.83;5.67;;;;;;;10.16;65.48;99751.73;1739530;82;21564;-79
2022/09/24 04:27:22;;;;;;;9.78;5.12;;;;;;;10.24;65.68;99750.81;1730729;81;21200;-79
2022/09/24 04:30:29;;;;;;;13.43;5.80;;;;;;;10.37;65.83;99747.44;1768572;81;21174;-79
2022/09/24 04:33:35;;;;;;;10.55;5.87;;;;;;;10.49;65.86;99750.88;1731185;82;21236;-79
2022/09/24 04:36:41;;;;;;;10.18;6.37;;;;;;;10.61;66.08;99757.23;1768615;81;21190;-79
2022/09/24 04:39:47;;;;;;;8.33;5.85;;;;;;;10.83;65.98;99755.42;1732165;82;21185;-78
2022/09/24 04:42:53;;;;;;;15.15;6.25;;;;;;;10.98;66.15;99752.97;1768637;80;21187;-78
2022/09/24 04:46:03;;;;;;;10.32;6.87;;;;;;;11.08;66.49;99754.02;1768448;81;21179;-79
2022/09/24 04:49:09;;;;;;;10.13;5.65;;;;;;;11.25;66.67;99755.48;1760341;81;21884;-79
2022/09/24 04:52:15;;;;;;;9.78;6.25;;;;;;;11.42;66.65;99759.33;1768362;81;21171;-79
2022/09/24 04:55:21;;;;;;;13.20;7.00;;;;;;;11.61;66.60;99754.56;1768668;81;21253;-79
2022/09/24 04:58:27;;;;;;;9.43;5.60;;;;;;;11.77;66.67;99758.42;1790596;79;21173;-78
2022/09/24 05:01:32;;;;;;;10.75;6.60;;;;;;;11.94;66.52;99749.41;1800433;79;21581;-79
2022/09/24 05:04:39;;;;;;;8.03;6.28;;;;;;;12.07;66.59;99748.66;1798580;79;21208;-79
2022/09/24 05:07:45;;;;;;;10.93;6.47;;;;;;;12.21;66.24;99750.45;1800434;79;21974;-79
2022/09/24 05:10:52;;;;;;;10.18;6.10;;;;;;;12.32;66.08;99743.55;1800090;79;21225;-78
2022/09/24 05:14:00;;;;;;;9.83;5.78;;;;;;;12.48;65.80;99750.09;1797984;79;21386;-78
2022/09/24 05:19:40;;;;;;;16.10;6.65;;;;;;;12.92;64.79;99748.83;1874978;76;28644;-79
2022/09/24 05:22:51;;;;;;;11.53;6.47;;;;;;;12.94;64.87;99758.25;1779292;80;21835;-79
2022/09/24 05:29:20;;;;;;;10.93;6.08;;;;;;;13.17;65.28;99759.25;1772789;81;20199;-79
2022/09/24 05:32:26;;;;;;;10.55;6.95;;;;;;;13.30;65.56;99756.58;1773356;81;21236;-79
2022/09/24 05:35:32;;;;;;;10.35;6.85;;;;;;;13.58;65.29;99761.08;1761377;80;21188;-79
2022/09/24 05:38:37;;;;;;;9.60;5.72;;;;;;;13.78;65.43;99764.69;1756974;81;21216;-79
2022/09/24 05:41:43;;;;;;;8.83;5.92;;;;;;;13.95;65.52;99760.47;1757527;81;21781;-79
2022/09/24 05:44:49;;;;;;;9.20;6.42;;;;;;;14.16;64.79;99765.42;1757717;81;21747;-79
2022/09/24 05:47:55;;;;;;;15.00;6.40;;;;;;;14.52;64.32;99760.33;1757714;81;22552;-79
2022/09/24 05:51:00;;;;;;;10.93;5.90;;;;;;;14.66;63.99;99761.14;1738972;81;21830;-79
2022/09/24 05:54:06;;;;;;;7.47;5.80;;;;;;;14.79;63.83;99760.26;1727727;83;21181;-79
2022/09/24 05:57:14;;;;;;;8.15;5.33;;;;;;;15.02;63.61;99764.72;1727466;83;21208;-79
2022/09/24 06:00:20;;;;;;;9.25;5.47;;;;;;;15.29;62.88;99755.80;1729677;81;21301;-79
2022/09/24 06:03:28;;;;;;;9.43;5.10;;;;;;;15.39;62.62;99755.33;1727301;83;22466;-80
2022/09/24 06:06:34;;;;;;;6.58;4.00;;;;;;;15.68;62.28;99754.42;1728155;83;22151;-79
2022/09/24 06:09:40;;;;;;;5.10;4.40;;;;;;;15.90;61.52;99757.09;1726257;83;21699;-79
2022/09/24 06:12:49;;;;;;;4.15;3.37;;;;;;;15.97;61.31;99752.38;1727249;83;21622;-79
2022/09/24 06:15:55;;;;;;;4.15;3.30;;;;;;;16.21;60.64;99747.08;1727145;83;21213;-79
2022/09/24 06:19:00;;;;;;;5.12;3.98;;;;;;;16.36;59.13;99751.70;1724858;83;21229;-79
2022/09/24 06:22:05;;;;;;;5.40;4.47;;;;;;;16.49;58.39;99757.63;1725708;83;21161;-79
2022/09/24 06:25:14;;;;;;;7.00;4.45;;;;;;;16.61;57.88;99756.66;1725419;83;21240;-79
2022/09/24 06:28:19;;;;;;;5.92;3.95;;;;;;;16.66;57.14;99762.03;1729913;81;21166;-79
2022/09/24 06:31:25;;;;;;;8.48;5.42;;;;;;;16.75;56.88;99763.41;1746806;81;21192;-79
2022/09/24 06:34:30;;;;;;;12.07;5.30;;;;;;;16.87;56.05;99762.97;1740588;81;21180;-79
2022/09/24 06:37:30;;;;;;;6.75;4.95;;;;;;;16.93;56.25;99763.95;1729264;81;21225;-78
2022/09/24 06:40:36;;;;;;;6.37;4.50;;;;;;;16.98;55.51;99766.87;1731282;81;21204;-78
2022/09/24 06:43:42;;;;;;;7.05;5.33;;;;;;;17.05;54.58;99775.39;1748497;81;21692;-78
2022/09/24 06:46:49;;;;;;;8.90;6.85;;;;;;;17.02;54.16;99768.94;1754613;81;21322;-78
2022/09/24 06:49:56;;;;;;;12.65;6.92;;;;;;;16.77;54.22;99777.31;1753870;81;21196;-78
2022/09/24 06:53:01;;;;;;;8.85;6.47;;;;;;;16.76;54.17;99773.41;1754519;81;21200;-78
2022/09/24 06:56:07;;;;;;;8.38;6.15;;;;;;;16.76;53.72;99777.02;1724733;81;21200;-78
2022/09/24 06:59:12;;;;;;;8.08;5.03;;;;;;;16.55;53.55;99777.41;1724962;83;21244;-79
2022/09/24 07:02:18;;;;;;;6.20;5.10;;;;;;;16.36;53.69;99782.06;1737100;81;21732;-79
2022/09/24 07:05:24;;;;;;;10.03;6.42;;;;;;;16.26;53.96;99785.34;1754901;81;21389;-79
2022/09/24 07:08:30;;;;;;;8.58;6.72;;;;;;;16.14;54.44;99783.53;1753595;81;21958;-79
2022/09/24 07:11:36;;;;;;;5.92;4.62;;;;;;;16.20;54.54;99785.41;1752478;81;21207;-79
2022/09/24 07:14:41;;;;;;;7.62;5.25;;;;;;;16.28;54.61;99780.99;1721971;82;21204;-79
2022/09/24 07:17:48;;;;;;;9.45;4.83;;;;;;;16.21;54.57;99787.09;1724510;83;21201;-79
2022/09/24 07:20:57;;;;;;;8.48;5.25;;;;;;;16.10;54.56;99785.38;1714806;83;21780;-79
2022/09/24 07:24:04;;;;;;;7.20;5.15;;;;;;;16.12;54.70;99785.68;1709853;83;21212;-79
2022/09/24 07:27:13;;;;;;;7.62;4.83;;;;;;;16.24;55.06;99776.98;1715880;82;21756;-79
2022/09/24 07:30:19;;;;;;;7.15;4.70;;;;;;;16.48;55.21;99780.25;1799999;79;21240;-79
2022/09/24 07:33:25;;;;;;;8.25;4.62;;;;;;;16.76;55.45;99781.16;1759569;81;21304;-79
2022/09/24 07:36:33;;;;;;;6.65;4.08;;;;;;;16.89;53.55;99780.17;1798738;78;21260;-79
2022/09/24 07:39:39;;;;;;;5.37;3.58;;;;;;;17.00;52.79;99780.77;1800178;79;21228;-79
2022/09/24 07:42:47;;;;;;;4.45;3.80;;;;;;;17.13;52.85;99787.22;1762287;81;21181;-79
2022/09/24 07:45:54;;;;;;;4.87;4.00;;;;;;;17.43;52.95;99785.31;1774042;81;21675;-79
2022/09/24 07:49:00;;;;;;;8.33;3.65;;;;;;;17.73;51.12;99782.56;1773955;81;21197;-79
2022/09/24 07:52:06;;;;;;;5.90;4.22;;;;;;;17.86;50.96;99785.67;1773980;81;21244;-79
2022/09/24 07:55:12;;;;;;;4.75;3.83;;;;;;;18.11;50.27;99784.96;1775131;81;21205;-79
2022/09/24 07:58:20;;;;;;;4.62;3.85;;;;;;;18.02;49.36;99779.47;1789609;79;21157;-79
2022/09/24 08:01:26;;;;;;;4.85;3.33;;;;;;;18.15;49.74;99783.92;1801160;79;21563;-79
2022/09/24 08:04:31;;;;;;;4.55;3.08;;;;;;;18.28;49.44;99779.55;1801254;79;21767;-79
2022/09/24 08:07:37;;;;;;;4.00;3.33;;;;;;;18.25;49.20;99776.41;1762797;81;21197;-79
2022/09/24 08:10:44;;;;;;;3.90;3.40;;;;;;;18.24;49.20;99779.72;1787724;78;22397;-79
2022/09/24 08:13:50;;;;;;;4.15;3.30;;;;;;;18.21;49.02;99786.27;1769469;81;21191;-79
2022/09/24 08:16:57;;;;;;;5.58;3.30;;;;;;;18.31;48.84;99788.77;1767907;81;21765;-79
2022/09/24 08:20:04;;;;;;;3.65;2.77;;;;;;;18.44;48.78;99786.28;1781473;79;21248;-79
2022/09/24 08:23:15;;;;;;;4.08;3.27;;;;;;;18.31;49.23;99781.00;1799552;79;21228;-79
2022/09/24 08:26:21;;;;;;;4.05;3.00;;;;;;;18.33;49.54;99779.67;1801089;79;21189;-78
2022/09/24 08:29:27;;;;;;;3.65;2.67;;;;;;;18.50;49.38;99778.42;1796087;79;21189;-79
2022/09/24 08:32:31;;;;;;;3.35;2.67;;;;;;;18.50;49.45;99777.03;1790667;80;21240;-78
2022/09/24 08:35:42;;;;;;;3.12;2.83;;;;;;;18.74;49.29;99781.20;1789810;80;21197;-78
2022/09/24 08:38:44;;;;;;;3.35;2.77;;;;;;;18.80;48.93;99783.84;1750426;82;21194;-78
2022/09/24 08:42:06;;;;;;;4.47;3.17;;;;;;;18.92;48.51;99779.68;1742142;81;21839;-78
2022/09/24 08:48:39;;;;;;;7.67;2.87;;;;;;;19.15;48.51;99782.39;1769406;81;21213;-78
2022/09/24 08:51:53;;;;;;;4.90;3.27;;;;;;;19.13;48.15;99776.78;1768128;81;21221;-79
2022/09/24 08:55:01;;;;;;;4.25;2.80;;;;;;;19.24;47.59;99779.22;1768344;81;21207;-79
2022/09/24 08:58:13;;;;;;;7.65;3.50;;;;;;;19.28;47.39;99774.31;1770452;79;21224;-79
2022/09/24 09:01:20;;;;;;;3.85;2.87;;;;;;;19.19;47.17;99776.34;1788910;80;21221;-79
2022/09/24 09:04:30;;;;;;;4.22;3.02;;;;;;;19.21;46.59;99772.80;1775672;79;21157;-79
2022/09/24 09:07:50;;;;;;;6.08;3.55;;;;;;;19.22;46.68;99775.31;1780757;79;21157;-78
2022/09/24 09:11:00;;;;;;;4.95;3.62;;;;;;;19.29;46.82;99779.31;1773406;79;21190;-79
2022/09/24 09:14:16;;;;;;;5.97;4.42;;;;;;;19.34;46.78;99780.29;1799621;79;21240;-79
2022/09/24 09:17:49;;;;;;;3.90;3.50;;;;;;;19.40;46.50;99779.84;1799528;79;21248;-79
2022/09/24 09:20:56;;;;;;;3.85;3.12;;;;;;;19.50;46.11;99777.26;1757700;81;21282;-79
2022/09/24 09:24:03;;;;;;;5.12;3.67;;;;;;;19.32;45.84;99774.13;1770065;80;21308;-78
2022/09/24 09:27:09;;;;;;;4.30;3.35;;;;;;;19.31;46.42;99772.45;1773720;81;21196;-79
2022/09/24 09:30:18;;;;;;;4.78;3.45;;;;;;;19.44;46.36;99775.48;1785294;79;22248;-79
2022/09/24 09:33:44;;;;;;;4.65;3.50;;;;;;;19.61;45.79;99775.00;1775271;81;21178;-79
2022/09/24 09:37:27;;;;;;;3.42;3.10;;;;;;;19.60;45.62;99773.87;1779101;79;21756;-79
2022/09/24 09:40:50;;;;;;;3.95;2.77;;;;;;;19.57;45.60;99781.26;1775796;81;21220;-79
2022/09/24 09:43:56;;;;;;;4.17;3.10;;;;;;;19.49;45.65;99777.52;1775787;81;21215;-79
2022/09/24 09:47:28;;;;;;;4.08;3.55;;;;;;;19.53;45.61;99771.23;1775990;81;21247;-79
2022/09/24 09:50:49;;;;;;;5.03;3.52;;;;;;;19.48;46.17;99770.27;1775810;81;21719;-79
2022/09/24 09:54:08;;;;;;;3.35;3.05;;;;;;;19.67;45.36;99767.64;1776815;81;21185;-78
2022/09/24 09:57:17;;;;;;;3.80;3.10;;;;;;;19.65;44.91;99763.70;1776825;81;21180;-79
2022/09/24 10:00:40;;;;;;;14.50;4.22;;;;;;;19.62;45.14;99757.29;1775596;81;21200;-78
2022/09/24 10:03:55;;;;;;;5.05;2.95;;;;;;;19.64;45.05;99755.64;1776592;80;21735;-78
2022/09/24 10:07:19;;;;;;;4.90;3.25;;;;;;;19.56;44.91;99742.97;1775341;81;21294;-78
2022/09/24 10:10:27;;;;;;;4.78;3.05;;;;;;;19.37;45.24;99742.89;1776809;81;21232;-78
2022/09/24 10:13:33;;;;;;;6.15;3.15;;;;;;;19.46;44.55;99745.56;1776927;81;21731;-79
2022/09/24 10:16:50;;;;;;;4.03;3.52;;;;;;;19.53;44.46;99736.56;1776462;81;21751;-79
2022/09/24 10:19:56;;;;;;;8.18;3.85;;;;;;;19.44;44.36;99739.43;1776271;81;21181;-79
2022/09/24 10:23:14;;;;;;;6.78;3.27;;;;;;;19.35;44.16;99735.38;1774792;81;21216;-79
2022/09/24 10:26:20;;;;;;;13.45;3.50;;;;;;;19.30;44.72;99730.57;1776080;80;21303;-79
2022/09/24 10:33:07;;;;;;;4.65;2.98;;;;;;;19.48;44.36;99723.98;1775656;81;21252;-80
2022/09/24 10:36:16;;;;;;;4.50;2.75;;;;;;;19.58;43.77;99720.55;1777087;81;21188;-79
2022/09/24 10:39:23;;;;;;;2.65;2.02;;;;;;;19.76;44.05;99718.98;1777088;81;21185;-79
2022/09/24 10:42:36;;;;;;;4.12;2.20;;;;;;;19.88;42.55;99718.33;1776275;81;21228;-78
2022/09/24 10:46:16;;;;;;;4.30;2.25;;;;;;;19.90;42.62;99715.30;1775942;80;21897;-79
2022/09/24 10:49:45;;;;;;;2.75;2.02;;;;;;;20.03;42.23;99716.36;1777155;81;21289;-79
2022/09/24 10:53:00;;;;;;;6.50;2.10;;;;;;;20.03;41.45;99712.19;1776372;81;21220;-78
2022/09/24 10:56:37;;;;;;;9.48;3.02;;;;;;;20.01;41.89;99711.61;1776940;80;21176;-79
2022/09/24 10:59:50;;;;;;;6.53;2.00;;;;;;;20.09;41.52;99714.50;1776817;81;21236;-78
2022/09/24 11:03:16;;;;;;;2.75;1.90;;;;;;;20.04;41.59;99722.23;1776219;80;21263;-78
2022/09/24 11:06:43;;;;;;;2.42;1.82;;;;;;;20.10;41.81;99707.33;1776890;81;21184;-79
2022/09/24 11:10:12;;;;;;;3.55;2.20;;;;;;;20.28;41.02;99707.61;1776915;81;21335;-79
2022/09/24 11:13:29;;;;;;;2.25;1.90;;;;;;;20.31;41.24;99709.02;1776110;80;21192;-79
2022/09/24 11:16:50;;;;;;;7.25;2.22;;;;;;;20.25;41.81;99712.82;1775579;81;21207;-78
2022/09/24 11:20:14;;;;;;;2.30;2.00;;;;;;;20.15;41.59;99714.89;1776789;81;21181;-78
2022/09/24 11:23:43;;;;;;;2.52;2.30;;;;;;;20.17;41.29;99716.86;1776056;81;21208;-78
2022/09/24 11:27:15;;;;;;;4.35;2.25;;;;;;;20.05;40.82;99712.80;1776148;80;21778;-78
2022/09/24 11:30:28;;;;;;;5.97;2.58;;;;;;;20.08;40.98;99716.43;1779062;80;21208;-78
2022/09/24 11:33:58;;;;;;;5.70;2.58;;;;;;;19.85;41.42;99725.77;1778434;80;21738;-78
2022/09/24 11:37:39;;;;;;;10.78;3.10;;;;;;;19.69;42.34;99722.44;1778999;80;21168;-78
2022/09/24 11:41:12;;;;;;;2.77;2.10;;;;;;;19.48;47.05;99746.69;1777805;80;21188;-79
2022/09/24 11:44:51;;;;;;;6.53;2.37;;;;;;;18.61;48.93;99749.86;1778005;80;21228;-79
2022/09/24 11:48:02;;;;;;;3.17;2.33;;;;;;;17.70;48.89;99782.18;1772816;80;21181;-79
2022/09/24 11:51:17;;;;;;;3.30;2.20;;;;;;;16.78;51.86;99767.11;1778451;80;21254;-79
2022/09/24 11:54:33;;;;;;;6.17;2.08;;;;;;;16.33;54.04;99772.34;1778118;80;21784;-79
2022/09/24 11:57:52;;;;;;;3.30;1.72;;;;;;;15.89;56.02;99771.12;1779205;80;21169;-79
2022/09/24 12:01:14;;;;;;;1.80;1.25;;;;;;;15.69;57.57;99769.89;1778121;80;21227;-78
2022/09/24 12:04:25;;;;;;;1.60;1.27;;;;;;;15.54;57.82;99775.15;1777727;80;21517;-78
2022/09/24 12:07:39;;;;;;;2.35;1.30;;;;;;;15.43;58.74;99782.75;1779421;80;21177;-78
2022/09/24 12:10:50;;;;;;;1.37;1.12;;;;;;;15.33;59.66;99782.36;1783270;79;21230;-78
2022/09/24 12:14:21;;;;;;;1.72;0.80;;;;;;;15.35;59.50;99789.89;1791425;79;21165;-78
2022/09/24 12:17:44;;;;;;;2.72;1.15;;;;;;;15.11;60.17;99785.14;1786348;79;21810;-77
2022/09/24 12:21:06;;;;;;;1.35;0.90;;;;;;;15.36;60.24;99777.80;1787719;79;21174;-78
2022/09/24 12:24:22;;;;;;;1.40;1.10;;;;;;;15.51;60.37;99773.36;1783882;79;21725;-78
2022/09/24 12:27:34;;;;;;;2.40;1.35;;;;;;;15.77;61.02;99773.77;1778908;79;21178;-78
2022/09/24 12:34:36;;;;;;;1.47;0.90;;;;;;;16.50;60.35;99768.44;1771944;80;21158;-77
2022/09/24 12:37:46;;;;;;;1.15;1.00;;;;;;;16.81;59.11;99772.19;1779263;79;21153;-78
2022/09/24 12:41:05;;;;;;;1.02;0.93;;;;;;;17.06;58.29;99775.69;1778059;79;21208;-78
2022/09/24 12:44:23;;;;;;;1.52;0.90;;;;;;;17.25;57.98;99772.91;1758709;79;21174;-78
2022/09/24 12:47:39;;;;;;;1.00;0.85;;;;;;;17.29;57.67;99780.50;1773557;79;21166;-78
2022/09/24 12:50:46;;;;;;;2.10;1.15;;;;;;;17.34;57.39;99780.64;1770216;81;21181;-78
2022/09/24 12:53:54;;;;;;;1.47;1.20;;;;;;;17.18;56.53;99777.16;1761450;79;21138;-78
2022/09/24 12:57:00;;;;;;;6.15;1.40;;;;;;;17.18;56.31;99783.22;1787437;79;21149;-78
2022/09/24 13:00:04;;;;;;;1.87;1.17;;;;;;;17.21;55.99;99793.79;1784503;79;21158;-78
2022/09/24 13:03:11;;;;;;;3.90;1.98;;;;;;;17.26;56.05;99797.54;1796727;79;21177;-77
2022/09/24 13:06:43;;;;;;;3.33;1.22;;;;;;;17.20;56.81;99799.02;1801833;79;21303;-78
2022/09/24 13:09:48;;;;;;;2.30;0.80;;;;;;;16.89;56.99;99795.37;1800160;79;21189;-78
2022/09/24 13:12:56;;;;;;;4.20;0.90;;;;;;;16.73;56.26;99801.48;1801909;79;21252;-78
2022/09/24 13:16:10;;;;;;;5.72;1.10;;;;;;;16.40;56.78;99791.58;1800110;79;21189;-78
2022/09/24 13:19:41;;;;;;;6.87;1.17;;;;;;;16.17;57.47;99800.48;1801574;79;21193;-78
2022/09/24 13:22:47;;;;;;;13.40;1.07;;;;;;;16.01;58.33;99803.27;1799964;79;21636;-78
2022/09/24 13:26:10;;;;;;;2.17;0.85;;;;;;;15.90;59.17;99803.98;1799939;79;21225;-78
2022/09/24 13:29:30;;;;;;;2.27;0.62;;;;;;;15.88;59.71;99794.25;1802028;79;21197;-78
2022/09/24 13:32:40;;;;;;;1.55;0.70;;;;;;;15.91;59.93;99795.20;1802550;79;21157;-78
2022/09/24 13:36:05;;;;;;;1.65;0.78;;;;;;;15.86;60.65;99790.89;1802586;79;21159;-78
2022/09/24 13:39:24;;;;;;;0.70;0.70;;;;;;;15.94;60.93;99792.81;1800870;79;21197;-78
2022/09/24 13:42:46;;;;;;;1.57;0.78;;;;;;;15.88;61.84;99795.63;1801722;79;21830;-78
2022/09/24 13:45:52;;;;;;;1.20;0.85;;;;;;;16.02;61.83;99800.82;1799835;79;21268;-78
2022/09/24 13:49:05;;;;;;;1.40;0.93;;;;;;;16.17;61.07;99796.88;1801811;79;21189;-78
2022/09/24 13:52:38;;;;;;;0.75;0.75;;;;;;;16.24;60.99;99794.92;1799809;79;21179;-77
2022/09/24 13:55:48;;;;;;;0.85;0.80;;;;;;;15.93;62.02;99793.89;1801654;79;21228;-77
2022/09/24 13:58:54;;;;;;;2.15;1.02;;;;;;;15.96;62.62;99803.11;1801428;79;21248;-77
2022/09/24 14:02:00;;;;;;;1.17;0.90;;;;;;;16.16;62.42;99797.96;1802650;79;21213;-77
2022/09/24 14:05:08;;;;;;;1.80;1.10;;;;;;;16.26;62.34;99798.30;1801937;79;21743;-77
2022/09/24 14:08:17;;;;;;;2.45;1.30;;;;;;;16.31;62.17;99797.92;1802594;79;21182;-77
2022/09/24 14:11:29;;;;;;;1.10;0.98;;;;;;;16.36;61.72;99800.00;1785677;79;21720;-77
2022/09/24 14:14:41;;;;;;;1.47;1.00;;;;;;;16.23;61.59;99801.48;1802885;79;21256;-77
2022/09/24 14:17:47;;;;;;;3.75;1.45;;;;;;;16.22;61.61;99808.09;1801218;79;21227;-77
2022/09/24 14:20:52;;;;;;;3.70;1.60;;;;;;;16.36;61.40;99802.76;1801282;79;21185;-77
2022/09/24 14:24:02;;;;;;;4.45;1.50;;;;;;;16.26;61.83;99809.33;1802667;79;21185;-77
2022/09/24 14:27:18;;;;;;;1.52;1.42;;;;;;;16.40;61.26;99810.90;1801195;79;21246;-77
2022/09/24 14:30:32;;;;;;;1.95;1.40;;;;;;;16.38;61.07;99810.30;1775240;81;21178;-77
2022/09/24 14:33:39;;;;;;;3.87;1.17;;;;;;;16.22;61.11;99813.06;1776244;81;21293;-77
2022/09/24 14:36:45;;;;;;;1.67;1.30;;;;;;;16.19;61.18;99808.02;1776244;81;21749;-77
2022/09/24 14:39:53;;;;;;;1.55;1.27;;;;;;;16.22;61.05;99810.30;1777101;81;21162;-78
2022/09/24 14:43:05;;;;;;;1.50;1.20;;;;;;;16.23;60.86;99820.30;1776403;81;21209;-79
2022/09/24 14:46:13;;;;;;;;;;;;;;;16.19;60.90;99820.97;1777734;81;21234;-79
2022/09/24 14:49:32;;;;;;;2.10;1.25;;;;;;;16.24;60.91;99821.14;1776675;81;20215;-79
2022/09/24 14:52:42;;;;;;;2.62;1.25;;;;;;;16.04;61.22;99822.15;1775162;81;21729;-79
2022/09/24 14:55:49;;;;;;;2.12;1.27;;;;;;;15.91;61.42;99827.75;1776021;81;21186;-79
2022/09/24 14:58:55;;;;;;;4.90;1.50;;;;;;;15.81;61.07;99831.54;1776067;81;21225;-78
2022/09/24 15:02:33;;;;;;;1.50;1.40;;;;;;;15.71;60.89;99838.05;1776431;81;21721;-78
2022/09/24 15:05:39;;;;;;;1.45;1.35;;;;;;;15.66;60.84;99839.25;1775107;81;21241;-78
2022/09/24 15:08:46;;;;;;;1.65;1.45;;;;;;;15.50;61.18;99845.56;1776599;81;21178;-77
2022/09/24 15:11:53;;;;;;;1.30;1.20;;;;;;;15.40;61.40;99844.34;1753730;81;21176;-78
2022/09/24 15:15:02;;;;;;;1.62;1.42;;;;;;;15.34;61.53;99843.31;1775528;81;21221;-78